sensor_id;sensor_type;location;lat;lon;timestamp;temperature;humidity
2657;DHT22;1338;48.176;11.792;2023-02-26T00:01:39;-1.60;1.00
2657;DHT22;1338;48.176;11.792;2023-02-26T00:04:09;-1.60;99.90
2657;DHT22;1338;48.176;11.792;2023-02-26T00:06:38;-1.60;99.90
2657;DHT22;1338;48.176;11.792;2023-02-26T00:09:19;-1.60;1.00
2657;DHT22;1338;48.176;11.792;2023-02-26T00:11:49;-1.60;99.90
2657;DHT22;1338;48.176;11.792;2023-02-26T00:14:18;-1.70;99.90
2657;DHT22;1338;48.176;11.792;2023-02-26T00:16:50;-1.50;1.00
2657;DHT22;1338;48.176;11.792;2023-02-26T00:19:22;-1.60;99.90
2657;DHT22;1338;48.176;11.792;2023-02-26T00:21:51;-1.80;99.90
2657;DHT22;1338;48.176;11.792;2023-02-26T00:24:19;-1.80;99.90
2657;DHT22;1338;48.176;11.792;2023-02-26T00:26:49;-1.80;99.90
2657;DHT22;1338;48.176;11.792;2023-02-26T00:29:17;-1.80;99.90
2657;DHT22;1338;48.176;11.792;2023-02-26T00:31:46;-1.70;99.90
2657;DHT22;1338;48.176;11.792;2023-02-26T00:34:15;-1.70;99.90
2657;DHT22;1338;48.176;11.792;2023-02-26T00:36:46;-1.70;99.90
2657;DHT22;1338;48.176;11.792;2023-02-26T00:39:30;-1.70;99.90
2657;DHT22;1338;48.176;11.792;2023-02-26T00:42:01;-1.40;99.90
2657;DHT22;1338;48.176;11.792;2023-02-26T00:44:30;-1.50;99.90
2657;DHT22;1338;48.176;11.792;2023-02-26T00:47:03;-1.60;99.90
2657;DHT22;1338;48.176;11.792;2023-02-26T00:49:46;-1.60;99.90
2657;DHT22;1338;48.176;11.792;2023-02-26T00:52:24;-1.70;99.90
2657;DHT22;1338;48.176;11.792;2023-02-26T00:54:54;-1.50;99.90
2657;DHT22;1338;48.176;11.792;2023-02-26T00:57:24;-1.60;99.90
2657;DHT22;1338;48.176;11.792;2023-02-26T00:59:52;-1.60;99.90
2657;DHT22;1338;48.176;11.792;2023-02-26T01:02:20;-1.60;99.90
2657;DHT22;1338;48.176;11.792;2023-02-26T01:04:49;-1.40;99.90
2657;DHT22;1338;48.176;11.792;2023-02-26T01:07:21;-1.60;99.90
2657;DHT22;1338;48.176;11.792;2023-02-26T01:09:50;-1.60;99.90
2657;DHT22;1338;48.176;11.792;2023-02-26T01:12:19;-1.50;99.90
2657;DHT22;1338;48.176;11.792;2023-02-26T01:14:49;-1.50;99.90
2657;DHT22;1338;48.176;11.792;2023-02-26T01:17:22;-1.60;1.00
2657;DHT22;1338;48.176;11.792;2023-02-26T01:19:53;-1.60;36.00
2657;DHT22;1338;48.176;11.792;2023-02-26T01:22:24;-1.60;71.10
2657;DHT22;1338;48.176;11.792;2023-02-26T01:25:00;-1.60;1.00
2657;DHT22;1338;48.176;11.792;2023-02-26T01:27:29;-1.50;1.00
2657;DHT22;1338;48.176;11.792;2023-02-26T01:29:59;-1.60;1.00
2657;DHT22;1338;48.176;11.792;2023-02-26T01:32:34;-1.70;1.00
2657;DHT22;1338;48.176;11.792;2023-02-26T01:35:08;-1.70;1.00
2657;DHT22;1338;48.176;11.792;2023-02-26T01:37:46;-1.60;1.00
2657;DHT22;1338;48.176;11.792;2023-02-26T01:40:35;-1.70;1.00
2657;DHT22;1338;48.176;11.792;2023-02-26T01:43:11;-1.40;1.00
2657;DHT22;1338;48.176;11.792;2023-02-26T01:45:56;-1.70;1.00
2657;DHT22;1338;48.176;11.792;2023-02-26T01:48:35;-1.60;1.00
2657;DHT22;1338;48.176;11.792;2023-02-26T01:51:04;-1.70;1.00
2657;DHT22;1338;48.176;11.792;2023-02-26T01:53:32;-1.60;1.00
2657;DHT22;1338;48.176;11.792;2023-02-26T01:56:03;-1.70;1.00
2657;DHT22;1338;48.176;11.792;2023-02-26T01:58:34;-1.60;1.00
2657;DHT22;1338;48.176;11.792;2023-02-26T02:01:05;-1.80;1.00
2657;DHT22;1338;48.176;11.792;2023-02-26T02:03:36;-1.40;1.00
2657;DHT22;1338;48.176;11.792;2023-02-26T02:06:07;-1.40;1.00
2657;DHT22;1338;48.176;11.792;2023-02-26T02:08:36;-1.60;1.00
2657;DHT22;1338;48.176;11.792;2023-02-26T02:11:07;-1.80;1.00
2657;DHT22;1338;48.176;11.792;2023-02-26T02:13:55;-1.80;1.00
2657;DHT22;1338;48.176;11.792;2023-02-26T02:16:31;-1.80;1.00
2657;DHT22;1338;48.176;11.792;2023-02-26T02:19:15;-1.70;1.00
2657;DHT22;1338;48.176;11.792;2023-02-26T02:22:14;-1.90;1.00
2657;DHT22;1338;48.176;11.792;2023-02-26T02:24:57;-1.90;7.80
2657;DHT22;1338;48.176;11.792;2023-02-26T02:27:38;-2.00;1.00
2657;DHT22;1338;48.176;11.792;2023-02-26T02:30:24;-1.90;1.00
2657;DHT22;1338;48.176;11.792;2023-02-26T02:32:58;-2.10;1.00
2657;DHT22;1338;48.176;11.792;2023-02-26T02:35:31;-1.70;1.00
2657;DHT22;1338;48.176;11.792;2023-02-26T02:38:06;-2.00;1.00
2657;DHT22;1338;48.176;11.792;2023-02-26T02:40:40;-2.20;1.00
2657;DHT22;1338;48.176;11.792;2023-02-26T02:43:13;-1.40;1.00
2657;DHT22;1338;48.176;11.792;2023-02-26T02:45:43;-1.90;1.00
2657;DHT22;1338;48.176;11.792;2023-02-26T02:48:17;-1.90;1.00
2657;DHT22;1338;48.176;11.792;2023-02-26T02:50:51;-1.10;1.00
2657;DHT22;1338;48.176;11.792;2023-02-26T02:53:22;-1.90;1.00
2657;DHT22;1338;48.176;11.792;2023-02-26T02:55:54;-1.00;1.00
2657;DHT22;1338;48.176;11.792;2023-02-26T02:58:27;-1.80;1.00
2657;DHT22;1338;48.176;11.792;2023-02-26T03:00:59;-2.00;1.00
2657;DHT22;1338;48.176;11.792;2023-02-26T03:03:36;-1.70;1.00
2657;DHT22;1338;48.176;11.792;2023-02-26T03:06:07;-1.50;1.00
2657;DHT22;1338;48.176;11.792;2023-02-26T03:08:37;-2.00;1.00
2657;DHT22;1338;48.176;11.792;2023-02-26T03:11:08;-0.60;1.00
2657;DHT22;1338;48.176;11.792;2023-02-26T03:13:37;-1.40;1.00
2657;DHT22;1338;48.176;11.792;2023-02-26T03:16:34;-2.20;1.00
2657;DHT22;1338;48.176;11.792;2023-02-26T03:19:14;-2.20;1.00
2657;DHT22;1338;48.176;11.792;2023-02-26T03:21:48;-2.50;1.00
2657;DHT22;1338;48.176;11.792;2023-02-26T03:24:39;-2.40;1.00
2657;DHT22;1338;48.176;11.792;2023-02-26T03:27:14;-1.80;1.00
2657;DHT22;1338;48.176;11.792;2023-02-26T03:29:48;-1.80;1.00
2657;DHT22;1338;48.176;11.792;2023-02-26T03:32:22;-1.90;1.00
2657;DHT22;1338;48.176;11.792;2023-02-26T03:34:59;-1.70;1.00
2657;DHT22;1338;48.176;11.792;2023-02-26T03:37:33;-1.40;1.00
2657;DHT22;1338;48.176;11.792;2023-02-26T03:40:06;-2.00;1.00
2657;DHT22;1338;48.176;11.792;2023-02-26T03:42:40;-2.40;1.00
2657;DHT22;1338;48.176;11.792;2023-02-26T03:45:13;-2.40;1.00
2657;DHT22;1338;48.176;11.792;2023-02-26T03:47:49;-2.20;1.00
2657;DHT22;1338;48.176;11.792;2023-02-26T03:50:27;-2.80;1.00
2657;DHT22;1338;48.176;11.792;2023-02-26T03:53:22;-2.70;1.00
2657;DHT22;1338;48.176;11.792;2023-02-26T03:55:59;-2.90;1.00
2657;DHT22;1338;48.176;11.792;2023-02-26T03:59:03;-2.90;1.00
2657;DHT22;1338;48.176;11.792;2023-02-26T04:01:48;-2.90;1.00
2657;DHT22;1338;48.176;11.792;2023-02-26T04:04:22;-2.70;1.00
2657;DHT22;1338;48.176;11.792;2023-02-26T04:06:54;-2.60;1.00
2657;DHT22;1338;48.176;11.792;2023-02-26T04:09:22;-2.70;1.00
2657;DHT22;1338;48.176;11.792;2023-02-26T04:11:52;-2.20;1.00
2657;DHT22;1338;48.176;11.792;2023-02-26T04:14:20;-2.80;1.00
2657;DHT22;1338;48.176;11.792;2023-02-26T04:16:48;-2.70;1.00
2657;DHT22;1338;48.176;11.792;2023-02-26T04:19:16;-2.90;99.90
2657;DHT22;1338;48.176;11.792;2023-02-26T04:21:45;-2.90;99.90
2657;DHT22;1338;48.176;11.792;2023-02-26T04:24:16;-2.90;1.00
2657;DHT22;1338;48.176;11.792;2023-02-26T04:26:45;-3.20;99.90
2657;DHT22;1338;48.176;11.792;2023-02-26T04:29:14;-3.20;99.90
2657;DHT22;1338;48.176;11.792;2023-02-26T04:31:42;-3.40;99.90
2657;DHT22;1338;48.176;11.792;2023-02-26T04:34:11;-3.10;1.00
2657;DHT22;1338;48.176;11.792;2023-02-26T04:36:39;-3.20;99.90
2657;DHT22;1338;48.176;11.792;2023-02-26T04:39:08;-3.40;99.90
2657;DHT22;1338;48.176;11.792;2023-02-26T04:41:38;-3.40;99.90
2657;DHT22;1338;48.176;11.792;2023-02-26T04:44:07;-3.30;99.90
2657;DHT22;1338;48.176;11.792;2023-02-26T04:46:39;-2.90;1.00
2657;DHT22;1338;48.176;11.792;2023-02-26T04:49:07;-3.30;99.90
2657;DHT22;1338;48.176;11.792;2023-02-26T04:51:37;-3.30;99.90
2657;DHT22;1338;48.176;11.792;2023-02-26T04:54:07;-3.30;99.90
2657;DHT22;1338;48.176;11.792;2023-02-26T04:56:36;-3.30;1.00
2657;DHT22;1338;48.176;11.792;2023-02-26T04:59:05;-3.50;99.90
2657;DHT22;1338;48.176;11.792;2023-02-26T05:01:34;-3.70;99.90
2657;DHT22;1338;48.176;11.792;2023-02-26T05:04:06;-3.50;1.00
2657;DHT22;1338;48.176;11.792;2023-02-26T05:06:35;-3.80;1.00
2657;DHT22;1338;48.176;11.792;2023-02-26T05:09:04;-3.70;1.00
2657;DHT22;1338;48.176;11.792;2023-02-26T05:11:32;-3.70;1.00
2657;DHT22;1338;48.176;11.792;2023-02-26T05:14:00;-4.00;1.00
2657;DHT22;1338;48.176;11.792;2023-02-26T05:16:30;-3.90;1.00
2657;DHT22;1338;48.176;11.792;2023-02-26T05:18:58;-3.60;1.00
2657;DHT22;1338;48.176;11.792;2023-02-26T05:21:27;-3.90;1.00
2657;DHT22;1338;48.176;11.792;2023-02-26T05:23:55;-3.70;1.00
2657;DHT22;1338;48.176;11.792;2023-02-26T05:26:23;-4.00;1.00
2657;DHT22;1338;48.176;11.792;2023-02-26T05:28:52;-4.20;1.00
2657;DHT22;1338;48.176;11.792;2023-02-26T05:31:20;-4.20;1.00
2657;DHT22;1338;48.176;11.792;2023-02-26T05:33:50;-4.20;1.00
2657;DHT22;1338;48.176;11.792;2023-02-26T05:36:18;-4.10;1.00
2657;DHT22;1338;48.176;11.792;2023-02-26T05:38:46;-4.20;1.00
2657;DHT22;1338;48.176;11.792;2023-02-26T05:41:14;-4.20;1.00
2657;DHT22;1338;48.176;11.792;2023-02-26T05:43:42;-4.30;1.00
2657;DHT22;1338;48.176;11.792;2023-02-26T05:46:10;-4.30;1.00
2657;DHT22;1338;48.176;11.792;2023-02-26T05:48:39;-4.50;1.00
2657;DHT22;1338;48.176;11.792;2023-02-26T05:51:12;-4.40;1.00
2657;DHT22;1338;48.176;11.792;2023-02-26T05:53:40;-4.50;1.00
2657;DHT22;1338;48.176;11.792;2023-02-26T05:56:08;-4.60;1.00
2657;DHT22;1338;48.176;11.792;2023-02-26T05:58:37;-4.60;1.00
2657;DHT22;1338;48.176;11.792;2023-02-26T06:01:05;-4.60;1.00
2657;DHT22;1338;48.176;11.792;2023-02-26T06:03:33;-4.60;1.00
2657;DHT22;1338;48.176;11.792;2023-02-26T06:06:01;-4.60;1.00
2657;DHT22;1338;48.176;11.792;2023-02-26T06:08:30;-4.40;1.00
2657;DHT22;1338;48.176;11.792;2023-02-26T06:10:58;-4.70;1.00
2657;DHT22;1338;48.176;11.792;2023-02-26T06:13:27;-4.70;1.00
2657;DHT22;1338;48.176;11.792;2023-02-26T06:15:55;-4.80;1.00
2657;DHT22;1338;48.176;11.792;2023-02-26T06:18:23;-4.80;1.00
2657;DHT22;1338;48.176;11.792;2023-02-26T06:20:51;-4.80;1.00
2657;DHT22;1338;48.176;11.792;2023-02-26T06:23:19;-4.90;1.00
2657;DHT22;1338;48.176;11.792;2023-02-26T06:25:49;-4.90;1.00
2657;DHT22;1338;48.176;11.792;2023-02-26T06:28:18;-5.00;1.00
2657;DHT22;1338;48.176;11.792;2023-02-26T06:30:46;-4.90;1.00
2657;DHT22;1338;48.176;11.792;2023-02-26T06:33:14;-4.80;1.00
2657;DHT22;1338;48.176;11.792;2023-02-26T06:35:42;-4.70;1.00
2657;DHT22;1338;48.176;11.792;2023-02-26T06:38:11;-4.80;1.00
2657;DHT22;1338;48.176;11.792;2023-02-26T06:40:39;-4.80;1.00
2657;DHT22;1338;48.176;11.792;2023-02-26T06:43:09;-4.80;1.00
2657;DHT22;1338;48.176;11.792;2023-02-26T06:45:37;-4.80;1.00
2657;DHT22;1338;48.176;11.792;2023-02-26T06:48:05;-4.80;1.00
2657;DHT22;1338;48.176;11.792;2023-02-26T06:50:34;-4.70;1.00
2657;DHT22;1338;48.176;11.792;2023-02-26T06:53:02;-4.50;1.00
2657;DHT22;1338;48.176;11.792;2023-02-26T06:55:30;-4.30;1.00
2657;DHT22;1338;48.176;11.792;2023-02-26T06:57:58;-4.30;1.00
2657;DHT22;1338;48.176;11.792;2023-02-26T07:00:28;-4.20;1.00
2657;DHT22;1338;48.176;11.792;2023-02-26T07:02:56;-4.10;1.00
2657;DHT22;1338;48.176;11.792;2023-02-26T07:05:25;-3.80;1.00
2657;DHT22;1338;48.176;11.792;2023-02-26T07:07:53;-3.70;1.00
2657;DHT22;1338;48.176;11.792;2023-02-26T07:10:21;-3.70;1.00
2657;DHT22;1338;48.176;11.792;2023-02-26T07:12:50;-3.70;1.00
2657;DHT22;1338;48.176;11.792;2023-02-26T07:15:18;-3.90;1.00
2657;DHT22;1338;48.176;11.792;2023-02-26T07:17:48;-4.10;1.00
2657;DHT22;1338;48.176;11.792;2023-02-26T07:20:17;-4.10;1.00
2657;DHT22;1338;48.176;11.792;2023-02-26T07:22:45;-3.80;1.00
2657;DHT22;1338;48.176;11.792;2023-02-26T07:25:14;-3.60;1.00
2657;DHT22;1338;48.176;11.792;2023-02-26T07:27:42;-3.50;1.00
2657;DHT22;1338;48.176;11.792;2023-02-26T07:30:12;-3.50;99.90
2657;DHT22;1338;48.176;11.792;2023-02-26T07:32:41;-3.30;99.90
2657;DHT22;1338;48.176;11.792;2023-02-26T07:35:11;-3.40;99.90
2657;DHT22;1338;48.176;11.792;2023-02-26T07:37:39;-3.60;99.90
2657;DHT22;1338;48.176;11.792;2023-02-26T07:40:08;-3.60;99.90
2657;DHT22;1338;48.176;11.792;2023-02-26T07:42:36;-3.70;99.90
2657;DHT22;1338;48.176;11.792;2023-02-26T07:45:06;-3.80;99.90
2657;DHT22;1338;48.176;11.792;2023-02-26T07:47:34;-3.60;1.00
2657;DHT22;1338;48.176;11.792;2023-02-26T07:50:03;-3.60;99.90
2657;DHT22;1338;48.176;11.792;2023-02-26T07:52:32;-3.80;99.90
2657;DHT22;1338;48.176;11.792;2023-02-26T07:55:01;-3.80;99.90
2657;DHT22;1338;48.176;11.792;2023-02-26T07:57:29;-3.40;99.90
2657;DHT22;1338;48.176;11.792;2023-02-26T07:59:57;-3.00;99.90
2657;DHT22;1338;48.176;11.792;2023-02-26T08:02:25;-2.80;99.90
2657;DHT22;1338;48.176;11.792;2023-02-26T08:04:53;-2.70;99.90
2657;DHT22;1338;48.176;11.792;2023-02-26T08:07:21;-2.20;99.90
2657;DHT22;1338;48.176;11.792;2023-02-26T08:09:50;-2.30;99.90
2657;DHT22;1338;48.176;11.792;2023-02-26T08:12:19;-2.20;99.90
2657;DHT22;1338;48.176;11.792;2023-02-26T08:14:47;-1.80;99.90
2657;DHT22;1338;48.176;11.792;2023-02-26T08:17:15;-2.00;99.90
2657;DHT22;1338;48.176;11.792;2023-02-26T08:19:43;-1.70;99.90
2657;DHT22;1338;48.176;11.792;2023-02-26T08:22:11;-1.60;99.90
2657;DHT22;1338;48.176;11.792;2023-02-26T08:24:40;-1.80;99.90
2657;DHT22;1338;48.176;11.792;2023-02-26T08:27:09;-1.50;99.90
2657;DHT22;1338;48.176;11.792;2023-02-26T08:29:39;-1.40;99.90
2657;DHT22;1338;48.176;11.792;2023-02-26T08:32:08;-1.70;99.90
2657;DHT22;1338;48.176;11.792;2023-02-26T08:34:36;-1.40;99.90
2657;DHT22;1338;48.176;11.792;2023-02-26T08:37:04;-1.70;99.90
2657;DHT22;1338;48.176;11.792;2023-02-26T08:39:34;-1.90;99.90
2657;DHT22;1338;48.176;11.792;2023-02-26T08:42:05;-1.80;99.90
2657;DHT22;1338;48.176;11.792;2023-02-26T08:44:35;-1.90;99.90
2657;DHT22;1338;48.176;11.792;2023-02-26T08:47:03;-1.00;99.90
2657;DHT22;1338;48.176;11.792;2023-02-26T08:49:31;-1.40;99.90
2657;DHT22;1338;48.176;11.792;2023-02-26T08:51:59;-0.80;1.00
2657;DHT22;1338;48.176;11.792;2023-02-26T08:54:27;-0.20;99.90
2657;DHT22;1338;48.176;11.792;2023-02-26T08:56:55;-1.20;99.90
2657;DHT22;1338;48.176;11.792;2023-02-26T08:59:24;-1.20;99.90
2657;DHT22;1338;48.176;11.792;2023-02-26T09:01:54;-0.90;99.90
2657;DHT22;1338;48.176;11.792;2023-02-26T09:04:22;-1.10;99.90
2657;DHT22;1338;48.176;11.792;2023-02-26T09:06:50;-0.50;99.90
2657;DHT22;1338;48.176;11.792;2023-02-26T09:09:18;-0.20;99.90
2657;DHT22;1338;48.176;11.792;2023-02-26T09:11:47;-0.30;99.90
2657;DHT22;1338;48.176;11.792;2023-02-26T09:14:15;0.00;99.90
2657;DHT22;1338;48.176;11.792;2023-02-26T09:16:43;0.10;99.90
2657;DHT22;1338;48.176;11.792;2023-02-26T09:19:13;0.10;99.90
2657;DHT22;1338;48.176;11.792;2023-02-26T09:21:41;0.20;99.90
2657;DHT22;1338;48.176;11.792;2023-02-26T09:24:10;0.40;99.90
2657;DHT22;1338;48.176;11.792;2023-02-26T09:26:39;0.50;99.90
2657;DHT22;1338;48.176;11.792;2023-02-26T09:29:07;0.50;99.90
2657;DHT22;1338;48.176;11.792;2023-02-26T09:31:37;0.20;99.90
2657;DHT22;1338;48.176;11.792;2023-02-26T09:34:05;-0.20;99.90
2657;DHT22;1338;48.176;11.792;2023-02-26T09:36:38;-0.10;99.90
2657;DHT22;1338;48.176;11.792;2023-02-26T09:39:06;-0.30;99.90
2657;DHT22;1338;48.176;11.792;2023-02-26T09:41:37;-0.80;99.90
2657;DHT22;1338;48.176;11.792;2023-02-26T09:44:12;-1.00;99.90
2657;DHT22;1338;48.176;11.792;2023-02-26T09:46:47;0.00;99.90
2657;DHT22;1338;48.176;11.792;2023-02-26T09:52:15;0.00;99.90
2657;DHT22;1338;48.176;11.792;2023-02-26T09:54:47;0.00;99.90
2657;DHT22;1338;48.176;11.792;2023-02-26T09:57:25;0.30;99.90
2657;DHT22;1338;48.176;11.792;2023-02-26T09:59:54;-1.10;99.90
2657;DHT22;1338;48.176;11.792;2023-02-26T10:02:31;-0.30;99.90
2657;DHT22;1338;48.176;11.792;2023-02-26T10:05:17;0.20;99.90
2657;DHT22;1338;48.176;11.792;2023-02-26T10:07:52;0.30;99.90
2657;DHT22;1338;48.176;11.792;2023-02-26T10:10:31;0.40;99.90
2657;DHT22;1338;48.176;11.792;2023-02-26T10:13:02;1.30;99.90
2657;DHT22;1338;48.176;11.792;2023-02-26T10:15:34;1.50;99.90
2657;DHT22;1338;48.176;11.792;2023-02-26T10:18:07;2.10;99.90
2657;DHT22;1338;48.176;11.792;2023-02-26T10:20:44;1.40;80.70
2657;DHT22;1338;48.176;11.792;2023-02-26T10:23:19;1.60;93.10
2657;DHT22;1338;48.176;11.792;2023-02-26T10:25:55;1.40;90.50
2657;DHT22;1338;48.176;11.792;2023-02-26T10:28:43;1.00;94.80
2657;DHT22;1338;48.176;11.792;2023-02-26T10:31:23;1.00;99.90
2657;DHT22;1338;48.176;11.792;2023-02-26T10:34:03;0.90;99.90
2657;DHT22;1338;48.176;11.792;2023-02-26T10:36:39;0.80;99.90
2657;DHT22;1338;48.176;11.792;2023-02-26T10:39:21;0.80;99.90
2657;DHT22;1338;48.176;11.792;2023-02-26T10:41:51;1.20;99.90
2657;DHT22;1338;48.176;11.792;2023-02-26T10:44:26;1.10;99.40
2657;DHT22;1338;48.176;11.792;2023-02-26T10:47:01;1.20;95.30
2657;DHT22;1338;48.176;11.792;2023-02-26T10:49:46;1.30;93.20
2657;DHT22;1338;48.176;11.792;2023-02-26T10:52:19;1.50;93.10
2657;DHT22;1338;48.176;11.792;2023-02-26T10:55:03;1.40;90.30
2657;DHT22;1338;48.176;11.792;2023-02-26T10:57:35;1.20;83.70
2657;DHT22;1338;48.176;11.792;2023-02-26T11:00:09;1.40;87.20
2657;DHT22;1338;48.176;11.792;2023-02-26T11:02:44;1.50;79.60
2657;DHT22;1338;48.176;11.792;2023-02-26T11:05:16;1.90;74.30
2657;DHT22;1338;48.176;11.792;2023-02-26T11:07:48;2.00;62.00
2657;DHT22;1338;48.176;11.792;2023-02-26T11:10:22;1.70;57.20
2657;DHT22;1338;48.176;11.792;2023-02-26T11:12:51;1.70;61.20
2657;DHT22;1338;48.176;11.792;2023-02-26T11:15:21;1.60;68.60
2657;DHT22;1338;48.176;11.792;2023-02-26T11:17:55;1.40;74.40
2657;DHT22;1338;48.176;11.792;2023-02-26T11:20:29;1.40;93.30
2657;DHT22;1338;48.176;11.792;2023-02-26T11:22:59;1.50;94.60
2657;DHT22;1338;48.176;11.792;2023-02-26T11:25:31;1.50;98.30
2657;DHT22;1338;48.176;11.792;2023-02-26T11:28:04;1.50;99.90
2657;DHT22;1338;48.176;11.792;2023-02-26T11:30:35;1.70;99.90
2657;DHT22;1338;48.176;11.792;2023-02-26T11:33:14;2.20;84.60
2657;DHT22;1338;48.176;11.792;2023-02-26T11:35:44;2.70;86.60
2657;DHT22;1338;48.176;11.792;2023-02-26T11:38:17;2.00;72.10
2657;DHT22;1338;48.176;11.792;2023-02-26T11:40:51;1.70;93.50
2657;DHT22;1338;48.176;11.792;2023-02-26T11:43:23;1.40;94.10
2657;DHT22;1338;48.176;11.792;2023-02-26T11:45:57;1.20;99.90
2657;DHT22;1338;48.176;11.792;2023-02-26T11:48:32;1.20;99.90
2657;DHT22;1338;48.176;11.792;2023-02-26T11:51:03;1.30;99.90
2657;DHT22;1338;48.176;11.792;2023-02-26T11:53:35;1.60;99.90
2657;DHT22;1338;48.176;11.792;2023-02-26T11:56:13;1.90;89.60
2657;DHT22;1338;48.176;11.792;2023-02-26T11:58:44;2.10;74.80
2657;DHT22;1338;48.176;11.792;2023-02-26T12:01:15;1.80;61.10
2657;DHT22;1338;48.176;11.792;2023-02-26T12:03:44;2.70;65.40
2657;DHT22;1338;48.176;11.792;2023-02-26T12:06:16;3.50;30.30
2657;DHT22;1338;48.176;11.792;2023-02-26T12:08:45;3.10;10.60
2657;DHT22;1338;48.176;11.792;2023-02-26T12:11:28;2.90;11.30
2657;DHT22;1338;48.176;11.792;2023-02-26T12:14:07;3.10;11.60
2657;DHT22;1338;48.176;11.792;2023-02-26T12:16:46;3.20;6.00
2657;DHT22;1338;48.176;11.792;2023-02-26T12:19:33;2.80;1.00
2657;DHT22;1338;48.176;11.792;2023-02-26T12:22:22;3.50;4.90
2657;DHT22;1338;48.176;11.792;2023-02-26T12:25:11;4.20;1.00
2657;DHT22;1338;48.176;11.792;2023-02-26T12:27:58;4.20;1.00
2657;DHT22;1338;48.176;11.792;2023-02-26T12:30:43;4.50;1.00
2657;DHT22;1338;48.176;11.792;2023-02-26T12:33:19;3.80;1.00
2657;DHT22;1338;48.176;11.792;2023-02-26T12:36:04;4.50;1.00
2657;DHT22;1338;48.176;11.792;2023-02-26T12:38:38;4.10;1.00
2657;DHT22;1338;48.176;11.792;2023-02-26T12:43:58;4.20;1.00
2657;DHT22;1338;48.176;11.792;2023-02-26T12:46:44;3.30;1.00
2657;DHT22;1338;48.176;11.792;2023-02-26T12:49:32;3.20;1.00
2657;DHT22;1338;48.176;11.792;2023-02-26T12:52:22;4.00;1.00
2657;DHT22;1338;48.176;11.792;2023-02-26T12:55:02;4.40;1.00
2657;DHT22;1338;48.176;11.792;2023-02-26T12:57:53;4.00;1.00
2657;DHT22;1338;48.176;11.792;2023-02-26T13:00:40;3.70;1.00
2657;DHT22;1338;48.176;11.792;2023-02-26T13:03:38;3.70;1.00
2657;DHT22;1338;48.176;11.792;2023-02-26T13:06:39;3.20;1.00
2657;DHT22;1338;48.176;11.792;2023-02-26T13:09:18;3.70;1.00
2657;DHT22;1338;48.176;11.792;2023-02-26T13:11:57;3.00;1.00
2657;DHT22;1338;48.176;11.792;2023-02-26T13:14:40;3.00;1.00
2657;DHT22;1338;48.176;11.792;2023-02-26T13:17:17;3.60;1.00
2657;DHT22;1338;48.176;11.792;2023-02-26T13:19:50;3.80;1.00
2657;DHT22;1338;48.176;11.792;2023-02-26T13:22:21;3.00;1.00
2657;DHT22;1338;48.176;11.792;2023-02-26T13:24:54;2.60;1.00
2657;DHT22;1338;48.176;11.792;2023-02-26T13:27:27;1.80;1.00
2657;DHT22;1338;48.176;11.792;2023-02-26T13:30:05;1.60;1.00
2657;DHT22;1338;48.176;11.792;2023-02-26T13:32:39;1.80;1.00
2657;DHT22;1338;48.176;11.792;2023-02-26T13:35:18;1.90;1.00
2657;DHT22;1338;48.176;11.792;2023-02-26T13:37:49;1.80;1.00
2657;DHT22;1338;48.176;11.792;2023-02-26T13:40:46;2.30;1.00
2657;DHT22;1338;48.176;11.792;2023-02-26T13:43:24;2.30;1.00
2657;DHT22;1338;48.176;11.792;2023-02-26T13:46:04;2.10;1.00
2657;DHT22;1338;48.176;11.792;2023-02-26T13:48:44;1.70;1.00
2657;DHT22;1338;48.176;11.792;2023-02-26T13:51:31;1.50;1.00
2657;DHT22;1338;48.176;11.792;2023-02-26T13:54:01;1.30;1.00
2657;DHT22;1338;48.176;11.792;2023-02-26T13:56:49;1.00;1.00
2657;DHT22;1338;48.176;11.792;2023-02-26T13:59:47;1.10;1.00
2657;DHT22;1338;48.176;11.792;2023-02-26T14:02:36;1.10;1.00
2657;DHT22;1338;48.176;11.792;2023-02-26T14:05:32;0.70;8.10
2657;DHT22;1338;48.176;11.792;2023-02-26T14:11:12;1.20;23.10
2657;DHT22;1338;48.176;11.792;2023-02-26T14:14:08;1.20;12.10
2657;DHT22;1338;48.176;11.792;2023-02-26T14:16:40;2.00;9.50
2657;DHT22;1338;48.176;11.792;2023-02-26T14:19:20;3.00;1.00
2657;DHT22;1338;48.176;11.792;2023-02-26T14:21:52;2.70;1.00
2657;DHT22;1338;48.176;11.792;2023-02-26T14:24:29;2.30;1.00
2657;DHT22;1338;48.176;11.792;2023-02-26T14:27:29;1.50;1.00
2657;DHT22;1338;48.176;11.792;2023-02-26T14:30:03;1.20;1.00
2657;DHT22;1338;48.176;11.792;2023-02-26T14:32:33;0.90;32.40
2657;DHT22;1338;48.176;11.792;2023-02-26T14:35:05;0.70;92.20
2657;DHT22;1338;48.176;11.792;2023-02-26T14:37:38;0.30;99.90
2657;DHT22;1338;48.176;11.792;2023-02-26T14:40:13;0.30;99.90
2657;DHT22;1338;48.176;11.792;2023-02-26T14:42:44;0.50;99.90
2657;DHT22;1338;48.176;11.792;2023-02-26T14:45:27;0.70;99.90
2657;DHT22;1338;48.176;11.792;2023-02-26T14:47:58;0.40;99.90
2657;DHT22;1338;48.176;11.792;2023-02-26T14:50:32;0.30;99.90
2657;DHT22;1338;48.176;11.792;2023-02-26T14:53:36;0.20;99.90
2657;DHT22;1338;48.176;11.792;2023-02-26T14:56:13;0.40;99.90
2657;DHT22;1338;48.176;11.792;2023-02-26T14:59:04;0.40;99.90
2657;DHT22;1338;48.176;11.792;2023-02-26T15:01:45;0.50;99.90
2657;DHT22;1338;48.176;11.792;2023-02-26T15:04:27;0.80;99.90
2657;DHT22;1338;48.176;11.792;2023-02-26T15:07:11;0.50;99.90
2657;DHT22;1338;48.176;11.792;2023-02-26T15:09:53;0.40;99.90
2657;DHT22;1338;48.176;11.792;2023-02-26T15:12:35;0.20;99.90
2657;DHT22;1338;48.176;11.792;2023-02-26T15:15:34;0.10;99.90
2657;DHT22;1338;48.176;11.792;2023-02-26T15:21:09;2.40;99.90
2657;DHT22;1338;48.176;11.792;2023-02-26T15:23:42;3.10;65.80
2657;DHT22;1338;48.176;11.792;2023-02-26T15:26:18;3.60;12.90
2657;DHT22;1338;48.176;11.792;2023-02-26T15:28:46;3.70;1.00
2657;DHT22;1338;48.176;11.792;2023-02-26T15:31:16;3.60;1.00
2657;DHT22;1338;48.176;11.792;2023-02-26T15:33:47;3.00;1.00
2657;DHT22;1338;48.176;11.792;2023-02-26T15:36:18;2.70;1.00
2657;DHT22;1338;48.176;11.792;2023-02-26T15:38:52;2.40;1.00
2657;DHT22;1338;48.176;11.792;2023-02-26T15:41:23;2.60;1.00
2657;DHT22;1338;48.176;11.792;2023-02-26T15:43:55;2.70;1.00
2657;DHT22;1338;48.176;11.792;2023-02-26T15:46:27;2.80;1.00
2657;DHT22;1338;48.176;11.792;2023-02-26T15:49:01;2.30;1.00
2657;DHT22;1338;48.176;11.792;2023-02-26T15:51:32;2.00;1.00
2657;DHT22;1338;48.176;11.792;2023-02-26T15:54:01;1.50;1.00
2657;DHT22;1338;48.176;11.792;2023-02-26T15:56:35;1.40;1.00
2657;DHT22;1338;48.176;11.792;2023-02-26T15:59:09;1.50;2.60
2657;DHT22;1338;48.176;11.792;2023-02-26T16:01:40;2.00;1.00
2657;DHT22;1338;48.176;11.792;2023-02-26T16:04:12;1.80;1.00
2657;DHT22;1338;48.176;11.792;2023-02-26T16:06:42;2.10;1.00
2657;DHT22;1338;48.176;11.792;2023-02-26T16:09:19;2.30;1.00
2657;DHT22;1338;48.176;11.792;2023-02-26T16:11:50;1.90;1.00
2657;DHT22;1338;48.176;11.792;2023-02-26T16:14:21;1.00;5.40
2657;DHT22;1338;48.176;11.792;2023-02-26T16:16:52;0.80;42.70
2657;DHT22;1338;48.176;11.792;2023-02-26T16:19:30;0.90;67.50
2657;DHT22;1338;48.176;11.792;2023-02-26T16:22:03;0.70;63.00
2657;DHT22;1338;48.176;11.792;2023-02-26T16:24:32;0.70;40.00
2657;DHT22;1338;48.176;11.792;2023-02-26T16:27:04;0.50;25.10
2657;DHT22;1338;48.176;11.792;2023-02-26T16:29:35;0.30;1.00
2657;DHT22;1338;48.176;11.792;2023-02-26T16:32:06;0.60;1.00
2657;DHT22;1338;48.176;11.792;2023-02-26T16:34:40;0.50;1.00
2657;DHT22;1338;48.176;11.792;2023-02-26T16:37:12;0.60;1.00
2657;DHT22;1338;48.176;11.792;2023-02-26T16:39:45;0.40;1.00
2657;DHT22;1338;48.176;11.792;2023-02-26T16:42:19;0.40;1.00
2657;DHT22;1338;48.176;11.792;2023-02-26T16:44:50;0.30;1.00
2657;DHT22;1338;48.176;11.792;2023-02-26T16:47:19;0.70;1.00
2657;DHT22;1338;48.176;11.792;2023-02-26T16:49:49;0.60;1.00
2657;DHT22;1338;48.176;11.792;2023-02-26T16:52:19;0.40;1.00
2657;DHT22;1338;48.176;11.792;2023-02-26T16:54:54;0.40;1.00